Time;durP1;ratioP1;P1;durP2;ratioP2;P2;SDS_P1;SDS_P2;PMS_P1;PMS_P2;Temp;Humidity;BMP_temperature;BMP_pressure;BME280_temperature;BME280_humidity;BME280_pressure;Samples;Min_cycle;Max_cycle;Signal;HPM_P1;HPM_P2
2023/10/10 00:00:05;;;;;;;4.30;1.87;;;16.90;93.00;;;18.64;66.92;101846.19;3081080;46;20456;-70
2023/10/10 00:02:34;;;;;;;2.77;1.97;;;16.90;93.00;;;18.66;67.04;101846.81;3081238;46;20435;-69
2023/10/10 00:05:12;;;;;;;6.13;2.60;;;16.90;93.10;;;18.69;67.46;101840.25;3081586;46;20427;-69
2023/10/10 00:07:44;;;;;;;3.23;2.20;;;16.90;93.10;;;18.68;67.01;101839.47;3080777;46;20536;-69
2023/10/10 00:10:13;;;;;;;4.40;2.50;;;16.90;93.10;;;18.68;67.36;101833.28;3081126;46;20501;-69
2023/10/10 00:12:41;;;;;;;5.43;2.37;;;16.90;93.10;;;18.68;67.50;101835.97;3081206;46;20431;-69
2023/10/10 00:15:12;;;;;;;6.00;2.57;;;16.90;93.10;;;18.67;67.40;101835.13;3081057;46;20467;-69
2023/10/10 00:17:41;;;;;;;7.30;3.13;;;16.90;93.10;;;18.65;67.14;101834.53;3081277;46;20570;-69
2023/10/10 00:20:22;;;;;;;4.03;2.33;;;16.90;93.10;;;18.62;67.48;101832.25;3080879;46;21035;-69
2023/10/10 00:22:58;;;;;;;4.13;2.23;;;16.90;93.10;;;18.58;67.43;101831.00;3080996;46;20427;-69
2023/10/10 00:25:36;;;;;;;8.10;2.80;;;16.80;93.10;;;18.56;67.13;101827.72;3081130;46;20483;-69
2023/10/10 00:28:17;;;;;;;6.40;2.90;;;16.90;93.20;;;18.55;67.39;101826.06;3081389;46;20427;-70
2023/10/10 00:30:46;;;;;;;7.67;2.53;;;16.90;93.20;;;18.52;67.64;101829.13;3081448;46;20451;-70
2023/10/10 00:33:16;;;;;;;4.13;2.30;;;16.80;93.20;;;18.51;67.80;101832.84;3081301;46;20510;-69
2023/10/10 00:35:46;;;;;;;6.57;2.97;;;16.80;93.20;;;18.48;67.39;101827.88;3081663;46;20499;-69
2023/10/10 00:38:38;;;;;;;4.30;2.70;;;16.80;93.30;;;18.47;67.82;101830.75;3081048;46;20497;-70
2023/10/10 00:41:07;;;;;;;6.43;3.03;;;16.80;93.40;;;18.44;67.87;101826.63;3080496;46;20451;-70
2023/10/10 00:43:37;;;;;;;5.40;2.87;;;16.80;93.40;;;18.44;68.15;101823.13;3080816;46;20513;-69
2023/10/10 00:46:05;;;;;;;3.43;2.57;;;16.70;93.40;;;18.43;67.84;101837.47;3080746;46;20457;-69
2023/10/10 00:48:38;;;;;;;4.83;2.90;;;16.70;93.50;;;18.42;68.15;101836.66;3080986;46;20560;-69
2023/10/10 00:51:11;;;;;;;9.53;3.20;;;16.70;93.60;;;18.42;68.37;101826.00;3081092;46;21039;-69
2023/10/10 00:53:45;;;;;;;9.77;3.27;;;16.70;93.60;;;18.42;68.15;101823.34;3080520;46;20489;-69
2023/10/10 00:56:14;;;;;;;4.43;2.53;;;16.70;93.60;;;18.42;68.07;101823.34;3080600;46;21033;-69
2023/10/10 00:58:46;;;;;;;9.27;3.23;;;16.70;93.60;;;18.43;67.98;101821.47;3080811;46;21000;-70
2023/10/10 01:01:19;;;;;;;3.97;3.00;;;16.70;93.70;;;18.43;68.18;101819.63;3080746;46;20473;-69
2023/10/10 01:03:50;;;;;;;4.33;2.50;;;16.70;93.70;;;18.42;68.26;101823.34;3080653;46;20431;-69
2023/10/10 01:06:24;;;;;;;9.73;2.93;;;16.70;93.70;;;18.41;68.09;101820.84;3080531;46;21101;-71
2023/10/10 01:09:03;;;;;;;8.27;3.03;;;16.70;93.70;;;18.41;68.60;101818.19;3080370;46;20423;-69
2023/10/10 01:11:31;;;;;;;5.13;2.87;;;16.70;93.70;;;18.43;68.39;101829.47;3080253;46;22888;-70
2023/10/10 01:14:00;;;;;;;3.80;2.40;;;16.70;93.90;;;18.45;68.83;101822.09;3080725;46;20427;-71
2023/10/10 01:16:29;;;;;;;4.60;2.33;;;16.70;94.00;;;18.46;68.57;101811.28;3080402;46;20537;-69
2023/10/10 01:18:57;;;;;;;4.07;2.27;;;16.70;94.00;;;18.48;68.72;101805.72;3080518;46;20459;-70
2023/10/10 01:21:32;;;;;;;6.93;2.97;;;16.80;93.90;;;18.50;68.97;101807.16;3082668;46;20423;-69
2023/10/10 01:24:07;;;;;;;4.70;2.60;;;16.80;94.00;;;18.50;68.47;101806.34;3082997;46;20569;-70
2023/10/10 01:26:43;;;;;;;4.93;2.93;;;16.80;93.80;;;18.48;68.19;101801.22;3082848;46;20477;-69
2023/10/10 01:29:25;;;;;;;4.87;3.00;;;16.80;93.80;;;18.49;68.53;101808.22;3082624;46;20443;-69
2023/10/10 01:31:58;;;;;;;9.17;3.07;;;16.80;93.80;;;18.48;68.81;101805.72;3083146;46;20448;-69
2023/10/10 01:34:43;;;;;;;6.90;3.57;;;16.80;93.70;;;18.46;68.17;101802.44;3082852;46;20427;-70
2023/10/10 01:37:20;;;;;;;5.57;3.00;;;16.80;93.60;;;18.44;68.45;101805.28;3082464;46;20935;-69
2023/10/10 01:40:16;;;;;;;6.53;2.30;;;16.80;94.00;;;18.39;68.44;101809.56;3082733;46;21129;-69
2023/10/10 01:42:51;;;;;;;8.80;3.33;;;16.80;93.70;;;18.40;68.24;101806.69;3082731;46;20455;-69
2023/10/10 01:45:27;;;;;;;6.23;2.97;;;16.70;93.60;;;18.41;68.32;101805.69;3082308;46;20430;-70
2023/10/10 01:48:02;;;;;;;7.20;2.67;;;16.70;93.70;;;18.41;68.12;101794.19;3082724;46;20997;-70
2023/10/10 01:50:31;;;;;;;6.17;3.00;;;16.70;93.70;;;18.41;68.40;101795.00;3082401;46;20442;-69
2023/10/10 01:53:00;;;;;;;5.47;2.27;;;16.70;93.70;;;18.44;68.61;101804.47;3082928;46;20507;-69
2023/10/10 01:55:29;;;;;;;4.43;2.43;;;16.70;93.80;;;18.47;68.56;101798.75;3081730;46;21470;-70
2023/10/10 01:57:57;;;;;;;6.27;2.90;;;16.70;94.00;;;18.49;68.36;101802.88;3082843;46;20547;-69
2023/10/10 02:00:26;;;;;;;9.37;3.67;;;16.70;93.90;;;18.50;68.43;101798.34;3082266;46;20438;-69
2023/10/10 02:02:56;;;;;;;8.90;3.50;;;16.70;93.80;;;18.48;68.26;101795.88;3082862;46;20434;-70
2023/10/10 02:08:09;;;;;;;6.07;2.57;;;16.70;93.70;;;18.47;68.66;101798.75;3082380;46;20578;-69
2023/10/10 02:10:46;;;;;;;6.93;3.40;;;16.80;93.90;;;18.51;68.80;101800.00;3082084;46;21035;-69
2023/10/10 02:13:14;;;;;;;7.03;3.10;;;16.70;93.90;;;18.51;68.30;101800.81;3082510;46;20474;-68
2023/10/10 02:15:43;;;;;;;7.60;2.73;;;16.80;93.90;;;18.51;68.24;101800.81;3082618;46;20459;-70
2023/10/10 02:18:17;;;;;;;8.80;3.53;;;16.80;93.80;;;18.50;68.29;101804.50;3082719;46;20438;-71
2023/10/10 02:26:23;;;;;;;6.50;2.90;;;16.80;93.90;;;18.50;68.70;101793.00;3082546;46;20524;-68
2023/10/10 02:29:16;;;;;;;6.63;3.33;;;16.80;94.00;;;18.50;68.48;101795.69;3082147;46;20516;-70
2023/10/10 02:31:45;;;;;;;5.97;3.30;;;16.80;93.90;;;18.52;68.59;101794.47;3082163;46;21004;-69
2023/10/10 02:34:13;;;;;;;6.73;3.87;;;16.80;94.00;;;18.53;68.36;101798.78;3082315;46;20487;-70
2023/10/10 02:36:42;;;;;;;6.33;3.50;;;16.80;93.90;;;18.54;68.71;101795.06;3082405;46;20460;-70
2023/10/10 02:41:49;;;;;;;5.57;4.00;;;16.80;93.80;;;18.58;68.66;101799.00;3082288;46;20435;-70
2023/10/10 02:47:02;;;;;;;14.83;9.07;;;16.80;93.80;;;18.55;67.98;101802.06;3082184;46;20431;-68
2023/10/10 02:49:30;;;;;;;13.60;9.30;;;16.80;93.70;;;18.53;67.90;101798.78;3081606;46;20467;-69
2023/10/10 02:52:06;;;;;;;13.63;9.53;;;16.80;93.70;;;18.50;67.94;101798.34;3082168;46;20571;-70
2023/10/10 02:54:43;;;;;;;13.93;9.90;;;16.80;93.70;;;18.48;68.14;101792.41;3082150;46;20423;-69
2023/10/10 02:57:39;;;;;;;10.23;9.33;;;16.80;93.70;;;18.44;68.15;101794.63;3082260;46;20427;-71
2023/10/10 03:02:55;;;;;;;19.60;17.57;;;16.70;93.70;;;18.40;68.57;101782.69;3082072;46;20455;-69
2023/10/10 03:05:43;;;;;;;27.77;19.07;;;16.70;93.70;;;18.41;68.55;101792.34;3081906;46;20457;-69
2023/10/10 03:08:14;;;;;;;21.37;15.70;;;16.70;93.80;;;18.41;68.60;101787.00;3080846;46;20955;-70
2023/10/10 03:10:53;;;;;;;17.97;14.63;;;16.70;93.80;;;18.43;68.54;101790.28;3081821;46;20497;-69
2023/10/10 03:13:37;;;;;;;12.87;10.83;;;16.70;93.90;;;18.49;68.46;101794.88;3081128;46;20561;-69
2023/10/10 03:21:44;;;;;;;7.97;5.70;;;16.80;94.10;;;18.60;68.13;101783.63;3081734;46;21008;-69
2023/10/10 03:27:49;;;;;;;5.30;4.03;;;16.80;94.10;;;18.65;68.48;101797.19;3080388;46;20453;-69
2023/10/10 03:30:17;;;;;;;6.63;4.47;;;16.90;93.90;;;18.66;68.31;101788.13;3081095;46;21045;-69
2023/10/10 03:33:01;;;;;;;9.13;4.10;;;16.90;93.90;;;18.67;68.17;101787.13;3081696;46;20571;-69
2023/10/10 03:35:52;;;;;;;5.67;3.47;;;16.90;93.90;;;18.68;68.21;101772.78;3081281;46;20444;-69
2023/10/10 03:41:26;;;;;;;11.00;3.77;;;16.90;93.70;;;18.56;68.34;101761.06;3080752;46;20565;-69
2023/10/10 05:24:20;;;;;;;7.17;4.47;;;16.70;94.40;;;18.31;69.87;101751.91;3080464;46;21040;-68
2023/10/10 05:26:49;;;;;;;5.30;4.80;;;16.70;94.30;;;18.28;69.73;101752.28;3080038;46;20998;-69
2023/10/10 05:29:19;;;;;;;6.73;4.80;;;16.70;94.30;;;18.25;69.87;101758.06;3079988;46;20523;-69
2023/10/10 05:31:51;;;;;;;8.23;5.10;;;16.60;94.30;;;18.25;69.57;101758.88;3080732;46;20455;-66
2023/10/10 05:34:22;;;;;;;7.27;5.27;;;16.60;94.30;;;18.26;69.91;101765.00;3080117;46;20436;-68
2023/10/10 05:36:52;;;;;;;7.50;4.60;;;16.60;94.40;;;18.29;70.15;101759.28;3079911;46;20442;-68
2023/10/10 05:39:21;;;;;;;6.93;3.93;;;16.60;94.60;;;18.36;69.75;101764.63;3079989;46;21088;-69
2023/10/10 05:41:54;;;;;;;7.73;4.70;;;16.60;94.70;;;18.43;70.01;101766.31;3080479;46;20485;-69
2023/10/10 05:44:23;;;;;;;8.40;5.93;;;16.70;94.70;;;18.49;69.88;101770.88;3079962;46;20494;-70
2023/10/10 05:46:52;;;;;;;6.80;4.90;;;16.70;94.70;;;18.54;69.86;101768.41;3080465;46;20439;-69
2023/10/10 05:49:21;;;;;;;8.50;5.67;;;16.70;94.70;;;18.56;69.64;101768.22;3079559;46;20484;-70
2023/10/10 05:51:51;;;;;;;80.00;60.23;;;16.80;94.60;;;18.57;69.12;101776.00;3080401;46;20434;-68
2023/10/10 05:54:20;;;;;;;9.73;5.47;;;16.80;94.50;;;18.59;69.51;101768.63;3079756;46;21002;-69
2023/10/10 05:56:48;;;;;;;6.93;5.07;;;16.80;94.50;;;18.61;69.07;101763.13;3080733;46;20440;-68
2023/10/10 05:59:16;;;;;;;7.33;5.20;;;16.80;94.60;;;18.61;69.19;101747.09;3079802;46;20438;-69
2023/10/10 06:01:45;;;;;;;7.77;5.73;;;16.90;94.50;;;18.57;69.34;101751.19;3080093;46;21021;-68
2023/10/10 06:04:13;;;;;;;5.93;5.00;;;16.90;94.40;;;18.54;69.72;101754.28;3079721;46;20427;-68
2023/10/10 06:06:43;;;;;;;11.73;5.40;;;16.90;94.40;;;18.49;69.40;101749.53;3081843;46;20456;-68
2023/10/10 06:09:18;;;;;;;7.73;5.57;;;16.90;94.40;;;18.45;69.67;101750.09;3082186;46;20446;-70
2023/10/10 06:11:47;;;;;;;8.80;5.17;;;16.90;94.50;;;18.42;69.85;101747.84;3082771;46;20499;-68
2023/10/10 06:14:15;;;;;;;12.77;6.00;;;16.80;94.40;;;18.42;70.19;101740.69;3081815;46;20451;-69
2023/10/10 06:16:44;;;;;;;9.60;5.73;;;16.80;94.50;;;18.41;70.34;101747.03;3082510;46;20457;-70
2023/10/10 06:19:20;;;;;;;12.40;5.90;;;16.80;94.70;;;18.37;70.25;101745.78;3082014;46;21063;-68
2023/10/10 06:21:49;;;;;;;9.43;5.47;;;16.80;94.70;;;18.37;70.29;101751.13;3081964;46;20446;-69
2023/10/10 06:24:18;;;;;;;9.30;5.77;;;16.80;94.80;;;18.38;70.72;101749.25;3082314;46;21046;-69
2023/10/10 06:26:47;;;;;;;6.60;6.00;;;16.80;94.80;;;18.41;70.93;101746.19;3082427;46;20431;-69
2023/10/10 06:29:16;;;;;;;10.47;6.27;;;16.80;94.90;;;18.44;70.63;101751.97;3081991;46;20569;-67
2023/10/10 06:31:45;;;;;;;11.70;7.03;;;16.80;94.90;;;18.50;70.42;101748.50;3082353;46;20427;-68
2023/10/10 06:34:21;;;;;;;9.97;6.57;;;16.80;95.00;;;18.57;70.52;101752.00;3081591;46;20432;-69
2023/10/10 06:36:52;;;;;;;7.67;6.37;;;16.80;95.10;;;18.60;69.95;101767.63;3082283;46;20497;-69
2023/10/10 06:39:21;;;;;;;6.93;5.77;;;16.80;95.00;;;18.62;70.42;101759.41;3081642;46;21096;-69
2023/10/10 06:41:54;;;;;;;9.57;7.17;;;16.80;95.00;;;18.63;70.37;101751.22;3082320;46;20461;-68
2023/10/10 06:44:39;;;;;;;8.47;5.97;;;16.90;95.00;;;18.61;70.40;101763.91;3081968;46;20431;-68
2023/10/10 06:47:11;;;;;;;7.47;6.30;;;16.90;95.00;;;18.59;70.60;101765.97;3082150;46;21156;-70
2023/10/10 06:49:43;;;;;;;10.00;6.73;;;16.90;95.00;;;18.60;70.32;101762.28;3082088;46;20450;-69
2023/10/10 06:52:18;;;;;;;8.30;6.50;;;16.90;95.00;;;18.64;70.62;101760.84;3081928;46;20533;-68
2023/10/10 06:54:53;;;;;;;8.20;6.60;;;16.90;95.00;;;18.65;70.29;101754.50;3081135;46;20541;-70
2023/10/10 06:57:41;;;;;;;7.60;6.33;;;17.00;95.10;;;18.70;70.66;101762.72;3082173;46;21135;-68
2023/10/10 07:00:20;;;;;;;9.23;6.50;;;17.00;95.10;;;18.70;70.52;101748.56;3081807;46;20536;-68
2023/10/10 07:02:54;;;;;;;10.30;6.83;;;17.00;95.10;;;18.75;70.69;101751.44;3081715;46;20999;-69
2023/10/10 07:05:26;;;;;;;7.90;6.87;;;17.00;95.20;;;18.78;70.74;101751.84;3082105;46;21084;-68
2023/10/10 07:07:58;;;;;;;11.77;7.27;;;17.00;95.10;;;18.81;70.15;101747.94;3082134;46;20509;-69
2023/10/10 07:10:35;;;;;;;10.13;6.13;;;17.10;95.20;;;18.86;70.45;101753.50;3080645;43;20439;-68
2023/10/10 07:13:10;;;;;;;8.37;6.83;;;17.10;95.20;;;18.97;70.52;101768.09;3081322;46;20580;-68
2023/10/10 07:15:39;;;;;;;8.57;6.90;;;17.10;95.30;;;19.06;69.67;101761.53;3081341;46;20472;-70
2023/10/10 07:18:13;;;;;;;11.00;7.13;;;17.20;95.30;;;19.11;69.63;101764.41;3081950;46;20451;-68
2023/10/10 07:23:39;;;;;;;8.33;6.97;;;17.30;95.10;;;19.06;69.68;101767.69;3081761;46;20431;-69
2023/10/10 07:26:21;;;;;;;8.77;7.90;;;17.30;94.90;;;19.03;69.63;101776.09;3081617;46;20459;-68
2023/10/10 07:28:52;;;;;;;9.40;7.73;;;17.30;95.00;;;19.07;69.64;101771.16;3081361;46;20427;-69
2023/10/10 07:31:24;;;;;;;9.70;7.77;;;17.40;95.00;;;19.08;69.82;101775.47;3081982;46;20536;-68
2023/10/10 07:34:03;;;;;;;7.90;7.20;;;17.40;95.00;;;19.10;70.19;101773.44;3081305;46;20444;-68
2023/10/10 07:36:32;;;;;;;8.40;7.63;;;17.40;95.00;;;19.15;70.13;101781.66;3081200;46;20549;-68
2023/10/10 07:39:36;;;;;;;8.50;6.97;;;17.40;95.10;;;19.18;69.59;101779.41;3080873;46;21167;-70
2023/10/10 07:44:16;;;;;;;;;;;;;;;;;;;;;
2023/10/10 07:52:40;;;;;;;;;;;;;;;;;;;;;
2023/10/10 07:59:05;;;;;;;12.17;9.20;;;17.60;95.10;;;19.19;70.47;101782.88;3079855;46;20580;-72
2023/10/10 08:01:50;;;;;;;12.07;8.90;;;17.60;95.30;;;19.25;70.32;101779.41;3081221;46;20427;-71
2023/10/10 08:05:30;;;;;;;10.83;8.47;;;17.60;95.20;;;19.34;70.13;101786.16;3080008;46;20471;-72
2023/10/10 08:09:23;;;;;;;13.37;9.37;;;17.60;95.20;;;19.33;70.34;101789.84;3079353;46;20447;-71
2023/10/10 08:12:56;;;;;;;11.43;9.10;;;17.70;95.60;;;19.31;70.30;101781.22;3079109;43;20516;-72
2023/10/10 08:16:39;;;;;;;10.27;9.17;;;17.70;95.10;;;19.28;70.23;101770.97;3079015;46;20447;-72
2023/10/10 08:19:33;;;;;;;10.03;9.03;;;17.80;95.00;;;19.33;70.29;101773.81;3079161;46;20466;-71
2023/10/10 08:22:37;;;;;;;11.33;9.67;;;17.80;95.10;;;19.43;70.26;101774.28;3080044;46;20435;-72
2023/10/10 08:25:20;;;;;;;12.10;10.17;;;17.80;95.20;;;19.57;70.29;101774.06;3080293;46;20459;-72
2023/10/10 08:28:10;;;;;;;13.80;11.93;;;17.90;95.20;;;19.69;69.70;101774.22;3079623;46;20484;-71
2023/10/10 08:30:59;;;;;;;14.20;10.40;;;17.90;95.30;;;19.80;69.36;101773.56;3079462;43;20447;-72
2023/10/10 08:33:49;;;;;;;11.90;9.80;;;18.00;95.20;;;19.88;68.80;101754.66;3080114;46;20537;-72
2023/10/10 08:36:30;;;;;;;12.13;10.90;;;18.00;95.00;;;19.91;69.12;101756.09;3079858;46;20427;-69
2023/10/10 08:41:45;;;;;;;17.37;10.90;;;18.20;94.70;;;19.97;68.74;101750.72;3079837;46;20451;-70
2023/10/10 08:44:20;;;;;;;11.13;10.03;;;18.20;94.70;;;20.05;69.17;101737.13;3081357;46;20455;-69
2023/10/10 08:47:08;;;;;;;11.80;9.57;;;18.30;94.70;;;20.18;68.41;101737.06;3080569;46;20505;-71
2023/10/10 08:49:40;;;;;;;13.07;10.30;;;18.30;94.80;;;20.25;67.57;101739.75;3078611;46;20594;-70
2023/10/10 08:52:09;;;;;;;10.83;9.83;;;18.40;94.20;;;20.38;67.39;101733.50;3079726;46;20427;-69
2023/10/10 08:54:44;;;;;;;11.00;9.17;;;18.50;94.30;;;20.55;67.02;101737.31;3079862;46;21127;-71
2023/10/10 08:57:26;;;;;;;11.77;9.50;;;18.60;94.30;;;20.75;67.16;101740.69;3079530;46;20549;-70
2023/10/10 09:00:11;;;;;;;10.33;9.30;;;18.80;94.20;;;20.96;66.39;101734.97;3079715;43;20518;-70
2023/10/10 09:02:51;;;;;;;12.67;9.10;;;18.90;94.10;;;21.13;66.11;101735.25;3077543;46;21135;-69
2023/10/10 09:05:36;;;;;;;12.77;8.47;;;19.10;94.00;;;21.26;65.37;101735.97;3078508;46;20499;-71
2023/10/10 09:08:26;;;;;;;11.10;10.10;;;19.20;93.70;;;21.34;64.79;101722.28;3079238;46;20431;-71
2023/10/10 09:10:59;;;;;;;12.33;11.00;;;19.30;93.10;;;21.40;64.25;101721.41;3079410;46;20529;-71
2023/10/10 09:13:31;;;;;;;11.50;10.40;;;19.40;92.70;;;21.50;64.32;101727.06;3079299;46;21009;-69
2023/10/10 09:16:46;;;;;;;13.80;10.30;;;19.50;92.80;;;21.75;63.80;101728.88;3079539;46;20434;-72
2023/10/10 09:19:17;;;;;;;12.17;10.80;;;19.60;92.70;;;21.88;62.23;101728.75;3079049;43;20435;-70
2023/10/10 09:21:59;;;;;;;12.67;10.30;;;19.70;92.00;;;21.95;61.83;101732.16;3079978;46;20470;-70
2023/10/10 09:24:41;;;;;;;12.83;10.80;;;19.80;91.80;;;21.96;61.72;101733.81;3079610;46;20516;-69
2023/10/10 09:27:21;;;;;;;12.57;11.27;;;19.90;91.70;;;21.89;61.80;101730.38;3080206;46;20444;-70
2023/10/10 09:29:55;;;;;;;13.50;10.60;;;19.90;91.40;;;21.96;61.54;101715.03;3080154;46;20467;-71
2023/10/10 09:32:35;;;;;;;12.33;11.03;;;20.00;91.50;;;22.06;61.53;101713.44;3080162;46;20452;-69
2023/10/10 09:35:09;;;;;;;14.53;11.93;;;20.10;91.80;;;22.34;61.49;101710.19;3079584;46;21103;-69
2023/10/10 09:37:41;;;;;;;11.90;10.70;;;20.20;91.80;;;22.70;60.87;101706.59;3080202;46;21028;-69
2023/10/10 09:40:18;;;;;;;12.30;11.07;;;20.30;91.50;;;23.04;59.89;101707.66;3080485;46;21175;-69
2023/10/10 09:43:03;;;;;;;12.80;10.53;;;20.60;91.10;;;23.37;59.15;101707.94;3082269;46;21096;-70
2023/10/10 09:45:53;;;;;;;15.50;11.27;;;20.80;91.10;;;23.46;57.39;101698.47;3082084;46;21046;-69
2023/10/10 09:48:46;;;;;;;12.03;10.70;;;21.10;89.50;;;23.22;57.04;101694.97;3081683;46;20434;-69
2023/10/10 09:51:30;;;;;;;12.97;11.60;;;21.30;87.50;;;23.09;57.87;101691.66;3081923;46;20450;-69
2023/10/10 09:54:15;;;;;;;11.70;9.33;;;21.30;87.70;;;23.11;57.99;101703.00;3082040;46;20431;-70
2023/10/10 09:56:50;;;;;;;11.10;9.30;;;21.30;88.00;;;23.08;57.57;101709.69;3082231;46;20431;-75
2023/10/10 09:59:20;;;;;;;11.67;9.37;;;21.30;87.60;;;23.12;57.70;101704.66;3081441;46;20467;-69
2023/10/10 10:01:59;;;;;;;12.37;9.93;;;21.30;87.80;;;23.15;57.70;101706.88;3081524;46;21004;-70
2023/10/10 10:04:36;;;;;;;10.30;9.40;;;21.30;87.90;;;23.20;57.47;101694.34;3082012;46;21127;-69
2023/10/10 10:07:56;;;;;;;10.87;9.80;;;21.30;87.70;;;23.14;57.31;101695.31;3082384;46;20440;-69
2023/10/10 10:10:52;;;;;;;11.97;10.77;;;21.30;86.90;;;22.96;57.27;101689.22;3080523;43;20490;-68
2023/10/10 10:14:12;;;;;;;12.73;10.80;;;21.30;86.50;;;22.76;58.15;101682.31;3081436;46;20455;-68
2023/10/10 10:17:12;;;;;;;10.30;9.47;;;21.30;86.70;;;22.65;58.08;101682.31;3081567;46;20517;-69
2023/10/10 10:19:45;;;;;;;10.93;9.83;;;21.20;87.00;;;22.60;58.85;101687.50;3080605;46;21028;-69
2023/10/10 10:22:21;;;;;;;11.40;10.30;;;21.10;87.40;;;22.47;59.41;101691.19;3081413;46;20438;-70
2023/10/10 10:25:25;;;;;;;10.73;9.63;;;21.00;87.90;;;22.22;59.76;101688.69;3081591;46;21047;-68
2023/10/10 10:28:10;;;;;;;11.90;10.60;;;20.90;88.50;;;22.05;60.76;101678.81;3082475;46;20427;-70
2023/10/10 10:30:50;;;;;;;12.60;11.00;;;20.80;89.20;;;21.84;61.54;101681.94;3080951;46;21131;-68
2023/10/10 10:33:22;;;;;;;12.50;11.20;;;20.60;89.60;;;21.68;62.41;101678.00;3080876;46;20455;-68
2023/10/10 10:35:56;;;;;;;13.77;11.70;;;20.50;90.10;;;21.55;62.59;101676.31;3080488;46;20497;-69
2023/10/10 10:38:26;;;;;;;12.03;10.77;;;20.30;90.40;;;21.43;63.46;101659.34;3081313;46;20427;-70
2023/10/10 10:41:04;;;;;;;15.17;12.13;;;20.30;90.90;;;21.29;63.98;101662.38;3081487;46;20446;-70
2023/10/10 10:43:43;;;;;;;12.63;11.23;;;20.10;91.10;;;21.17;65.13;101662.28;3080632;46;20512;-69
2023/10/10 10:46:12;;;;;;;13.63;12.33;;;20.00;91.60;;;21.02;65.35;101661.78;3081922;46;20456;-68
2023/10/10 10:48:47;;;;;;;16.03;12.73;;;19.90;91.80;;;20.95;65.78;101669.06;3081672;46;21077;-68
2023/10/10 10:51:26;;;;;;;13.93;12.53;;;19.80;92.00;;;20.92;66.27;101672.16;3081431;46;20431;-68
2023/10/10 10:54:00;;;;;;;20.00;13.63;;;19.70;92.30;;;20.88;65.90;101663.78;3082365;46;20427;-69
2023/10/10 10:59:13;;;;;;;15.27;13.67;;;19.60;92.70;;;20.89;66.50;101664.59;3081484;46;20513;-69
2023/10/10 11:01:55;;;;;;;16.33;14.63;;;19.50;92.80;;;20.92;66.41;101664.97;3082239;46;20427;-68
2023/10/10 11:04:42;;;;;;;17.30;15.60;;;19.50;92.90;;;20.97;66.30;101658.94;3081929;46;20428;-69
2023/10/10 11:07:16;;;;;;;18.93;16.97;;;19.50;92.90;;;20.99;66.62;101659.53;3081873;46;20427;-67
2023/10/10 11:09:54;;;;;;;18.83;16.23;;;19.50;93.00;;;20.92;66.60;101648.06;3081578;46;20468;-69
2023/10/10 11:12:36;;;;;;;19.57;16.47;;;19.50;93.00;;;20.84;66.50;101648.38;3081820;46;20490;-68
2023/10/10 11:15:12;;;;;;;17.90;15.93;;;19.40;92.90;;;20.84;66.67;101640.34;3081610;46;20517;-68
2023/10/10 11:17:51;;;;;;;22.63;16.80;;;19.40;93.00;;;20.81;67.09;101636.25;3081494;43;20464;-68
2023/10/10 11:20:26;;;;;;;21.80;16.90;;;19.40;93.20;;;20.81;67.08;101638.91;3080128;46;20573;-69
2023/10/10 11:23:06;;;;;;;23.63;18.27;;;19.40;93.30;;;20.78;67.39;101625.16;3081713;46;20452;-70
2023/10/10 11:25:58;;;;;;;23.00;18.00;;;19.30;93.30;;;20.74;67.67;101618.59;3081043;46;20463;-69
2023/10/10 11:28:47;;;;;;;20.60;17.93;;;19.30;93.40;;;20.73;67.92;101616.94;3081547;46;20464;-68
2023/10/10 11:31:23;;;;;;;20.30;16.77;;;19.30;93.50;;;20.75;67.87;101615.69;3080499;46;20460;-69
2023/10/10 11:34:10;;;;;;;24.83;20.03;;;19.30;93.60;;;20.77;67.76;101624.34;3080250;46;20537;-70
2023/10/10 11:36:39;;;;;;;25.97;20.90;;;19.20;93.70;;;20.80;67.80;101620.41;3079761;46;20447;-70
2023/10/10 11:39:33;;;;;;;25.03;19.77;;;19.20;93.80;;;20.78;68.21;101609.91;3080140;46;20459;-70
2023/10/10 11:42:05;;;;;;;25.17;20.17;;;19.30;94.00;;;20.84;68.11;101609.06;3080315;46;20443;-69
2023/10/10 11:44:33;;;;;;;28.47;21.70;;;19.30;94.10;;;20.85;67.99;101604.50;3080033;46;20427;-69
2023/10/10 11:47:07;;;;;;;29.33;21.47;;;19.30;94.20;;;20.84;68.48;101609.06;3080205;46;20989;-68
2023/10/10 11:49:36;;;;;;;30.77;20.63;;;19.30;94.20;;;20.88;68.43;101612.91;3080304;46;21016;-69
2023/10/10 11:52:18;;;;;;;26.80;20.97;;;19.30;94.30;;;20.83;68.33;101603.91;3081226;46;20431;-69
2023/10/10 11:54:46;;;;;;;30.03;21.80;;;19.30;94.40;;;20.83;68.89;101603.91;3081812;46;20452;-68
2023/10/10 11:57:15;;;;;;;28.73;21.47;;;19.30;94.30;;;20.88;68.90;101593.34;3081582;46;20464;-68
2023/10/10 11:59:46;;;;;;;30.90;21.63;;;19.30;94.40;;;20.91;68.86;101591.06;3080827;46;20450;-69
2023/10/10 12:02:18;;;;;;;27.77;22.13;;;19.40;94.50;;;20.99;68.57;101591.81;3080716;46;20427;-69
2023/10/10 12:04:46;;;;;;;27.90;22.47;;;19.40;94.50;;;21.10;68.65;101581.22;3080862;46;20427;-69
2023/10/10 12:07:15;;;;;;;27.83;20.87;;;19.40;94.50;;;21.17;68.43;101581.13;3081162;46;20486;-69
2023/10/10 12:09:45;;;;;;;26.70;20.47;;;19.50;94.50;;;21.23;68.33;101581.06;3080486;46;20996;-68
2023/10/10 12:12:15;;;;;;;29.70;21.73;;;19.50;94.50;;;21.31;68.06;101572.72;3080444;43;20454;-69
2023/10/10 12:14:46;;;;;;;26.60;20.27;;;19.60;94.40;;;21.39;67.90;101575.13;3081136;46;20431;-69
2023/10/10 12:17:17;;;;;;;26.00;19.90;;;19.60;94.40;;;21.40;67.44;101579.41;3081039;46;21092;-69
2023/10/10 12:19:45;;;;;;;28.43;21.47;;;19.70;94.20;;;21.36;67.05;101583.59;3080807;46;20477;-69
2023/10/10 12:22:17;;;;;;;30.03;21.53;;;19.70;93.90;;;21.34;67.49;101580.31;3081008;46;20443;-68
2023/10/10 12:24:45;;;;;;;23.30;20.13;;;19.70;93.90;;;21.36;67.44;101575.56;3081208;46;20456;-68
2023/10/10 12:27:14;;;;;;;27.30;21.17;;;19.70;93.90;;;21.34;67.36;101572.28;3080394;46;20584;-70
2023/10/10 12:29:47;;;;;;;29.07;21.83;;;19.80;93.90;;;21.37;67.37;101571.81;3080226;46;20439;-69
2023/10/10 12:32:18;;;;;;;27.83;21.57;;;19.80;93.90;;;21.45;67.62;101576.88;3081042;46;20560;-69
2023/10/10 12:34:47;;;;;;;27.03;21.73;;;19.80;94.00;;;21.51;67.41;101572.50;3080912;46;20427;-69
2023/10/10 12:37:15;;;;;;;28.87;21.43;;;19.80;94.00;;;21.58;67.11;101574.00;3080228;46;20431;-69
2023/10/10 12:39:45;;;;;;;27.73;20.47;;;19.90;94.10;;;21.56;66.91;101578.78;3080394;46;21074;-70
2023/10/10 12:42:14;;;;;;;27.50;21.57;;;19.90;93.90;;;21.65;66.96;101583.84;3080997;46;21032;-69
2023/10/10 12:44:47;;;;;;;26.23;21.50;;;19.90;93.90;;;21.75;66.98;101570.72;3080922;46;20431;-69
2023/10/10 12:47:17;;;;;;;26.10;21.57;;;20.00;93.90;;;21.86;66.53;101569.97;3079832;46;21040;-69
2023/10/10 12:49:46;;;;;;;28.40;23.27;;;20.10;94.00;;;21.96;66.31;101563.03;3080056;46;20442;-70
2023/10/10 12:52:17;;;;;;;29.80;22.67;;;20.10;94.00;;;22.03;66.15;101568.28;3080022;46;21012;-68
2023/10/10 12:54:47;;;;;;;28.23;23.17;;;20.20;93.90;;;22.01;65.83;101571.16;3080520;46;20984;-69
2023/10/10 12:57:16;;;;;;;33.70;22.93;;;20.30;93.60;;;22.05;65.93;101558.13;3080461;46;20427;-69
2023/10/10 12:59:46;;;;;;;29.17;24.07;;;20.30;93.60;;;22.05;65.84;101558.13;3079985;46;21019;-69
2023/10/10 13:02:15;;;;;;;34.60;25.73;;;20.30;93.40;;;22.04;65.49;101557.31;3080506;46;20426;-69
2023/10/10 13:04:48;;;;;;;33.23;24.10;;;20.30;93.20;;;22.08;65.53;101552.31;3079759;46;20533;-69
2023/10/10 13:07:18;;;;;;;34.40;26.30;;;20.40;93.30;;;22.05;65.61;101552.78;3080623;46;20507;-68
2023/10/10 13:09:47;;;;;;;32.83;24.50;;;20.40;93.20;;;22.10;65.69;101550.22;3079056;46;20489;-70
2023/10/10 13:12:32;;;;;;;33.57;26.87;;;20.40;93.20;;;22.08;65.37;101546.97;3080546;46;20983;-69
2023/10/10 13:15:17;;;;;;;36.37;26.77;;;20.50;93.10;;;22.07;65.45;101548.81;3080663;46;20430;-69
2023/10/10 13:18:19;;;;;;;34.30;25.63;;;20.50;93.00;;;22.05;65.33;101552.78;3083090;46;20451;-69